Nearby METAR Reports

 

NZAA - Auckland Intl Ar, New Zealand
Distance from station: SW 18km
Updated: 27/09/2022 05:00
Overcast
Overcast
 Wind from ENE
Wind: ENE 24 km/h
Temperature: 14°C
Dew Point: 7°C
Humidity: 63%
Barometer: 1027 hPa
Clouds: Overcast
Visibility: 10 km
Cloud details: Mostly cloudy 1250 m
Overcast 1676 m
2022/09/26 16:00 NZAA 261600Z AUTO 06013KT 030V100 9999 BKN041/// OVC055/// 14/07 Q1027 NOSIG
NZWP - Whenuapai (nz-Af, New Zealand
Distance from station: WNW 30km
Updated: 02/08/2022 08:00
NOT Current
Nearby fog, Few clouds
Nearby fog, Few clouds
 Wind from W
Wind: W 6 km/h
Temperature: 2°C
Dew Point: 2°C
Humidity: 100%
Barometer: 1029 hPa
Summary: Nearby Fog
Clouds: Few Clouds
Cloud details: Few Clouds 91 m
2022/08/01 20:00 NZWP 012000Z 28003KT 20KM VCFG FEW003 02/02 Q1029 TEMPO TL2100 0500 FG
 
NZWN - Wellington Intl, New Zealand
Distance from station: S 493km
Updated: 27/09/2022 05:00
Mostly cloudy
Mostly cloudy
 Wind from NNE
Wind: NNE 6 km/h
Temperature: 9°C
Dew Point: 7°C
Humidity: 87%
Barometer: 1029 hPa
Clouds: Mostly cloudy
Visibility: 10 km
Cloud details: Mostly cloudy 823 m
2022/09/26 16:00 NZWN 261600Z AUTO 03003KT 9999 BKN027/// 09/07 Q1029 NOSIG
NZCH - Christchurch Int, New Zealand
Distance from station: SSW 759km
Updated: 27/09/2022 05:00
Clear
Clear
 Wind from NNE
Wind: NNE 7 km/h
Temperature: 8°C
Wind Chill: 7°C
Dew Point: 7°C
Humidity: 93%
Barometer: 1024 hPa
Clouds: Clear
Visibility: 8 km
2022/09/26 16:00 NZCH 261600Z AUTO 02004KT 8000 NCD 08/07 Q1024 BECMG 9999
 
YSNF - Norfolk Island A, Australia
Distance from station: NW 1091km
Updated: 27/09/2022 05:00
Overcast
Overcast
 Wind from NE
Wind: NE 17 km/h
Temperature: 18°C
Dew Point: 18°C
Humidity: 100%
Barometer: 1016 hPa
Clouds: Overcast
Visibility: 10 km
Cloud details: Overcast 91 m
2022/09/26 16:00 YSNF 261600Z AUTO 04009KT 9999 // OVC003 18/18 Q1016 RF00.0/000.0